This is the latest recevied weather packets stored in our database for station/object DM5KA-13. If no packets are shown the sender has not sent any weather packets the latest 10 day(s).
| Time | Temp. | Humidity | Pressure | Rain* | Wind** | Luminosity | Snow |
|---|---|---|---|---|---|---|---|
| 1777268723 | 8.89° C | 54% | 1026.4 hPa | 0 mm | 0.45 m/s, 0° | - | - |
| 1777268423 | 7.78° C | 55% | 1026.5 hPa | 0 mm | 0 m/s | - | - |
| 1777268123 | 7.78° C | 57% | 1026.5 hPa | 0 mm | 0 m/s | - | - |
| 1777267823 | 7.78° C | 57% | 1026.5 hPa | 0 mm | 0 m/s | - | - |
| 1777267523 | 7.22° C | 61% | 1026.4 hPa | 0 mm | 0 m/s | - | - |
| 1777267223 | 6.11° C | 61% | 1026.4 hPa | 0 mm | 0 m/s | - | - |
| 1777266923 | 5° C | 66% | 1026.4 hPa | 0 mm | 0 m/s | - | - |
| 1777266623 | 5° C | 66% | 1026.4 hPa | 0 mm | 0 m/s | - | - |
| 1777266323 | 5° C | 69% | 1026.4 hPa | 0 mm | 0 m/s | - | - |
| 1777266035 | 3.89° C | 71% | 1026.2 hPa | 0 mm | 0 m/s | - | - |
| 1777265711 | 3.89° C | 71% | 1026.3 hPa | 0 mm | 0 m/s | - | - |
| 1777265411 | 2.78° C | 76% | 1026.2 hPa | 0 mm | 0 m/s | - | - |
| 1777264811 | 2.78° C | 76% | 1026.1 hPa | 0 mm | 0 m/s | - | - |
| 1777264511 | 2.78° C | 76% | 1026.1 hPa | 0 mm | 0 m/s | - | - |
| 1777264211 | 2.22° C | 78% | 1026.1 hPa | 0 mm | 0 m/s | - | - |
| 1777263911 | 2.22° C | 77% | 1026.2 hPa | 0 mm | 0 m/s | - | - |
| 1777263611 | 1.11° C | 80% | 1026.1 hPa | 0 mm | 0 m/s | - | - |
| 1777263311 | 1.11° C | 82% | 1026.1 hPa | 0 mm | 0 m/s | - | - |
| 1777263011 | 1.11° C | 82% | 1026.1 hPa | 0 mm | 0 m/s | - | - |
| 1777262711 | 1.11° C | 82% | 1026 hPa | 0 mm | 0 m/s | - | - |
| 1777262411 | 1.11° C | 82% | 1026 hPa | 0 mm | 0 m/s | - | - |
| 1777262112 | 1.11° C | 83% | 1026.1 hPa | 0 mm | 0 m/s | - | - |
| 1777261812 | 1.11° C | 82% | 1026.1 hPa | 0 mm | 0 m/s | - | - |
| 1777261511 | 2.22° C | 82% | 1026.1 hPa | 0 mm | 0 m/s | - | - |
| 1777261211 | 2.22° C | 85% | 1026.1 hPa | 0 mm | 0 m/s | - | - |
* Rain latest hour (hover to see other rain measurements)
** Current wind speed in m/s (hover to see current wind gust speed)